Time;durP1;ratioP1;P1;durP2;ratioP2;P2;SDS_P1;SDS_P2;PMS_P1;PMS_P2;Temp;Humidity;BMP_temperature;BMP_pressure;BME280_temperature;BME280_humidity;BME280_pressure;Samples;Min_cycle;Max_cycle;Signal;HPM_P1;HPM_P2
2023/06/21 00:01:09;;;;;;;22.48;19.00;;;;;;;;;;13170673;22;20763;-79
2023/06/21 00:06:13;;;;;;;22.13;18.10;;;;;;;;;;13171479;22;20366;-79
2023/06/21 00:11:16;;;;;;;21.17;17.60;;;;;;;;;;13171712;22;20365;-79
2023/06/21 00:16:19;;;;;;;22.40;18.15;;;;;;;;;;13169287;22;20407;-80
2023/06/21 00:21:21;;;;;;;22.40;17.75;;;;;;;;;;13168668;22;20377;-79
2023/06/21 00:26:25;;;;;;;21.23;17.53;;;;;;;;;;13170945;22;20365;-79
2023/06/21 00:31:27;;;;;;;19.90;16.50;;;;;;;;;;13171943;22;20353;-79
2023/06/21 00:36:29;;;;;;;20.77;16.80;;;;;;;;;;13170380;22;20426;-78
2023/06/21 00:41:33;;;;;;;18.40;16.35;;;;;;;;;;13170583;22;20381;-79
2023/06/21 00:46:35;;;;;;;19.17;16.30;;;;;;;;;;13169423;22;20361;-80
2023/06/21 00:51:38;;;;;;;19.08;16.10;;;;;;;;;;13166472;22;20369;-79
2023/06/21 00:56:42;;;;;;;19.07;15.63;;;;;;;;;;13167268;22;20358;-80
2023/06/21 01:01:44;;;;;;;21.25;16.15;;;;;;;;;;13170893;22;20377;-79
2023/06/21 01:07:03;;;;;;;20.43;16.57;;;;;;;;;;13171348;22;20422;-79
2023/06/21 01:12:16;;;;;;;18.38;15.68;;;;;;;;;;13174053;22;20361;-79
2023/06/21 01:17:21;;;;;;;20.17;16.73;;;;;;;;;;13175570;22;20418;-79
2023/06/21 01:22:40;;;;;;;20.10;16.53;;;;;;;;;;13172883;22;20411;-79
2023/06/21 01:27:52;;;;;;;20.33;16.30;;;;;;;;;;13174317;22;20350;-79
2023/06/21 01:32:57;;;;;;;21.27;16.52;;;;;;;;;;13176142;22;20358;-79
2023/06/21 01:38:00;;;;;;;18.33;16.38;;;;;;;;;;13175475;22;20430;-80
2023/06/21 01:43:02;;;;;;;19.60;16.00;;;;;;;;;;13174050;22;20377;-80
2023/06/21 01:48:07;;;;;;;19.37;16.50;;;;;;;;;;13173527;22;20422;-79
2023/06/21 01:53:13;;;;;;;20.60;16.35;;;;;;;;;;13174108;22;20362;-80
2023/06/21 01:58:16;;;;;;;21.83;16.48;;;;;;;;;;13173450;22;20811;-79
2023/06/21 02:03:21;;;;;;;22.20;16.58;;;;;;;;;;13174135;22;20377;-79
2023/06/21 02:08:23;;;;;;;21.50;16.70;;;;;;;;;;13173858;22;20358;-79
2023/06/21 02:13:26;;;;;;;20.27;17.45;;;;;;;;;;13174892;22;20806;-79
2023/06/21 02:18:30;;;;;;;23.08;17.75;;;;;;;;;;13173682;22;20353;-79
2023/06/21 02:23:32;;;;;;;22.08;17.83;;;;;;;;;;13174331;22;20378;-79
2023/06/21 02:28:34;;;;;;;23.45;19.25;;;;;;;;;;13173765;22;20358;-80
2023/06/21 02:33:39;;;;;;;26.90;19.50;;;;;;;;;;13172893;22;20838;-80
2023/06/21 02:38:42;;;;;;;22.33;19.10;;;;;;;;;;13172316;22;20430;-80
2023/06/21 02:43:44;;;;;;;25.40;19.75;;;;;;;;;;13172837;22;20442;-80
2023/06/21 02:48:48;;;;;;;21.90;18.13;;;;;;;;;;13173890;22;20366;-79
2023/06/21 02:53:50;;;;;;;24.38;19.25;;;;;;;;;;13174430;22;20411;-79
2023/06/21 02:58:54;;;;;;;22.80;19.27;;;;;;;;;;13174801;22;20411;-79
2023/06/21 03:03:57;;;;;;;22.83;18.33;;;;;;;;;;13173745;22;20379;-79
2023/06/21 03:09:00;;;;;;;25.55;19.88;;;;;;;;;;13173759;22;20362;-79
2023/06/21 03:14:02;;;;;;;24.67;19.90;;;;;;;;;;13172178;22;20438;-79
2023/06/21 03:19:07;;;;;;;25.30;19.67;;;;;;;;;;13172920;22;20906;-79
2023/06/21 03:24:09;;;;;;;25.43;19.80;;;;;;;;;;13173485;22;20381;-79
2023/06/21 03:29:11;;;;;;;24.53;19.17;;;;;;;;;;13173943;22;20392;-79
2023/06/21 03:34:15;;;;;;;23.90;20.17;;;;;;;;;;13172041;22;20361;-79
2023/06/21 03:39:18;;;;;;;25.85;20.20;;;;;;;;;;13172590;22;20358;-79
2023/06/21 03:44:20;;;;;;;26.13;20.10;;;;;;;;;;13173412;22;20706;-79
2023/06/21 03:49:25;;;;;;;24.40;19.77;;;;;;;;;;13173182;22;20426;-79
2023/06/21 03:54:28;;;;;;;25.20;20.05;;;;;;;;;;13171974;22;20361;-80
2023/06/21 03:59:31;;;;;;;23.92;19.83;;;;;;;;;;13172865;22;20358;-79
2023/06/21 04:04:35;;;;;;;23.43;19.40;;;;;;;;;;13172765;22;20403;-79
2023/06/21 04:09:37;;;;;;;25.90;19.58;;;;;;;;;;13171774;22;20409;-79
2023/06/21 04:14:39;;;;;;;24.30;19.80;;;;;;;;;;13171837;22;20391;-79
2023/06/21 04:19:43;;;;;;;25.73;19.77;;;;;;;;;;13172402;22;20365;-79
2023/06/21 04:24:45;;;;;;;25.48;19.70;;;;;;;;;;13171567;22;20407;-79
2023/06/21 04:29:48;;;;;;;25.25;20.15;;;;;;;;;;13172235;22;20411;-79
2023/06/21 04:34:51;;;;;;;24.92;19.83;;;;;;;;;;13170541;22;20376;-79
2023/06/21 04:39:53;;;;;;;27.83;20.67;;;;;;;;;;13169806;22;20395;-79
2023/06/21 04:44:58;;;;;;;27.05;20.25;;;;;;;;;;13171531;22;20434;-79
2023/06/21 04:50:01;;;;;;;28.25;20.92;;;;;;;;;;13171162;22;20354;-79
2023/06/21 04:55:05;;;;;;;29.15;21.27;;;;;;;;;;13171066;22;20365;-79
2023/06/21 05:00:09;;;;;;;27.77;20.63;;;;;;;;;;13169608;22;20411;-79
2023/06/21 05:05:12;;;;;;;29.13;20.75;;;;;;;;;;13169336;22;20354;-80
2023/06/21 05:10:15;;;;;;;27.60;21.63;;;;;;;;;;13169054;22;20821;-79
2023/06/21 05:15:17;;;;;;;29.65;22.75;;;;;;;;;;13169703;22;20700;-79
2023/06/21 05:20:21;;;;;;;30.27;21.45;;;;;;;;;;13169300;22;20419;-79
2023/06/21 05:25:23;;;;;;;27.70;21.13;;;;;;;;;;13169484;22;20898;-79
2023/06/21 05:30:25;;;;;;;26.23;21.40;;;;;;;;;;13168243;22;20418;-79
2023/06/21 05:35:29;;;;;;;25.27;20.05;;;;;;;;;;13168897;22;20383;-80
2023/06/21 05:40:31;;;;;;;26.65;21.23;;;;;;;;;;13168064;22;20362;-79
2023/06/21 05:45:35;;;;;;;27.60;21.08;;;;;;;;;;13167952;22;20395;-79
2023/06/21 05:50:38;;;;;;;24.88;20.50;;;;;;;;;;13171817;22;20710;-79
2023/06/21 05:55:41;;;;;;;27.37;20.27;;;;;;;;;;13168398;22;20350;-79
2023/06/21 06:00:43;;;;;;;25.85;20.33;;;;;;;;;;13168127;22;20377;-79
2023/06/21 06:05:47;;;;;;;26.23;20.58;;;;;;;;;;13165113;22;20354;-78
2023/06/21 06:10:49;;;;;;;25.48;19.08;;;;;;;;;;13169345;22;20361;-78
2023/06/21 06:15:52;;;;;;;23.83;18.05;;;;;;;;;;13174506;22;20407;-79
2023/06/21 06:20:55;;;;;;;27.45;18.80;;;;;;;;;;13173620;22;20446;-79
2023/06/21 06:25:58;;;;;;;25.05;18.27;;;;;;;;;;13173968;22;20362;-79
2023/06/21 06:31:00;;;;;;;22.77;16.98;;;;;;;;;;13172751;22;20358;-78
2023/06/21 06:36:04;;;;;;;25.23;17.13;;;;;;;;;;13172670;22;20407;-79
2023/06/21 06:41:07;;;;;;;19.83;16.30;;;;;;;;;;13173232;22;20739;-79
2023/06/21 06:46:09;;;;;;;20.67;16.13;;;;;;;;;;13172480;22;20410;-79
2023/06/21 06:51:13;;;;;;;20.23;14.43;;;;;;;;;;13174324;22;20430;-79
2023/06/21 06:56:15;;;;;;;20.40;15.70;;;;;;;;;;13173504;22;20784;-79
2023/06/21 07:01:17;;;;;;;19.15;16.13;;;;;;;;;;13169318;22;20402;-79
2023/06/21 07:06:21;;;;;;;21.83;15.63;;;;;;;;;;13172657;22;20374;-79
2023/06/21 07:11:23;;;;;;;20.40;14.93;;;;;;;;;;13173781;22;20422;-79
2023/06/21 07:16:26;;;;;;;20.05;15.18;;;;;;;;;;13174217;22;20825;-79
2023/06/21 07:21:29;;;;;;;18.85;15.43;;;;;;;;;;13173761;22;20407;-79
2023/06/21 07:26:33;;;;;;;21.90;16.17;;;;;;;;;;13174094;22;20391;-80
2023/06/21 07:31:35;;;;;;;22.75;18.02;;;;;;;;;;13174524;22;20358;-80
2023/06/21 07:36:39;;;;;;;23.73;18.08;;;;;;;;;;13194688;22;20366;-79
2023/06/21 07:41:41;;;;;;;22.88;18.13;;;;;;;;;;13172393;22;20442;-79
2023/06/21 07:46:44;;;;;;;20.08;14.93;;;;;;;;;;13173781;22;20365;-80
2023/06/21 07:51:47;;;;;;;21.25;16.50;;;;;;;;;;13173161;22;20686;-80
2023/06/21 07:56:49;;;;;;;18.87;15.90;;;;;;;;;;13173443;22;20771;-79
2023/06/21 08:01:52;;;;;;;20.03;15.80;;;;;;;;;;13173878;22;20370;-79
2023/06/21 08:06:55;;;;;;;16.57;13.80;;;;;;;;;;13173175;22;20426;-79
2023/06/21 08:11:59;;;;;;;18.27;13.77;;;;;;;;;;13173085;22;20357;-80
2023/06/21 08:17:01;;;;;;;18.33;15.03;;;;;;;;;;13172483;22;20361;-79
2023/06/21 08:22:05;;;;;;;16.95;14.63;;;;;;;;;;13171605;22;20498;-80
2023/06/21 08:27:08;;;;;;;15.57;13.88;;;;;;;;;;13171837;22;20392;-79
2023/06/21 08:32:10;;;;;;;17.77;12.70;;;;;;;;;;13172838;22;20404;-79
2023/06/21 08:37:14;;;;;;;18.17;13.93;;;;;;;;;;13172751;22;20890;-79
2023/06/21 08:42:23;;;;;;;18.80;15.80;;;;;;;;;;13170537;22;20374;-80
2023/06/21 08:47:28;;;;;;;22.55;13.45;;;;;;;;;;13171853;22;20728;-79
2023/06/21 08:52:34;;;;;;;16.58;12.48;;;;;;;;;;13171459;22;20391;-79
2023/06/21 08:57:41;;;;;;;14.63;11.80;;;;;;;;;;13171719;22;20462;-79
2023/06/21 09:02:53;;;;;;;17.27;12.10;;;;;;;;;;13171476;22;20906;-79
2023/06/21 09:07:59;;;;;;;18.40;12.15;;;;;;;;;;13171479;22;20422;-80
2023/06/21 09:13:04;;;;;;;15.70;11.18;;;;;;;;;;13172735;22;20415;-79
2023/06/21 09:18:06;;;;;;;13.40;11.27;;;;;;;;;;13172175;22;20819;-79
2023/06/21 09:23:10;;;;;;;18.10;13.18;;;;;;;;;;13174542;22;20481;-79
2023/06/21 09:28:12;;;;;;;14.15;11.43;;;;;;;;;;13173245;22;20362;-79
2023/06/21 09:33:15;;;;;;;15.30;12.40;;;;;;;;;;13174326;22;20354;-80
2023/06/21 09:38:23;;;;;;;11.85;10.43;;;;;;;;;;13175533;22;20357;-80
2023/06/21 09:43:25;;;;;;;12.77;9.85;;;;;;;;;;13196936;22;20373;-80
2023/06/21 09:48:27;;;;;;;12.30;10.53;;;;;;;;;;13175201;22;20354;-80
2023/06/21 09:53:31;;;;;;;13.90;10.25;;;;;;;;;;13173564;22;20388;-79
2023/06/21 09:58:34;;;;;;;13.83;10.30;;;;;;;;;;13175685;22;20358;-80
2023/06/21 10:03:37;;;;;;;12.33;10.83;;;;;;;;;;13175843;22;20436;-79
2023/06/21 10:08:41;;;;;;;12.30;9.87;;;;;;;;;;13173388;22;20362;-80
2023/06/21 10:13:43;;;;;;;11.50;10.10;;;;;;;;;;13174261;22;20430;-80
2023/06/21 10:18:51;;;;;;;13.97;11.77;;;;;;;;;;13173252;22;20379;-79
2023/06/21 10:23:56;;;;;;;12.70;11.27;;;;;;;;;;13174771;22;20374;-80
2023/06/21 10:29:01;;;;;;;14.18;12.07;;;;;;;;;;13175097;22;20365;-80
2023/06/21 10:34:07;;;;;;;13.77;9.95;;;;;;;;;;13174652;22;20414;-80
2023/06/21 10:39:12;;;;;;;11.30;9.70;;;;;;;;;;13173554;22;20448;-79
2023/06/21 10:44:17;;;;;;;12.23;10.35;;;;;;;;;;13173602;22;20370;-80
2023/06/21 10:49:20;;;;;;;12.30;9.15;;;;;;;;;;13171336;22;20361;-80
2023/06/21 10:54:26;;;;;;;11.97;9.47;;;;;;;;;;13163405;22;20836;-80
2023/06/21 10:59:28;;;;;;;12.43;9.55;;;;;;;;;;13163448;22;20369;-79
2023/06/21 11:04:31;;;;;;;10.95;9.73;;;;;;;;;;13163469;22;20917;-80
2023/06/21 11:09:37;;;;;;;10.95;8.60;;;;;;;;;;13163986;22;20377;-80
2023/06/21 11:14:40;;;;;;;9.63;8.67;;;;;;;;;;13162722;22;20395;-80
2023/06/21 11:19:44;;;;;;;10.63;8.32;;;;;;;;;;13164370;22;20362;-80
2023/06/21 11:24:57;;;;;;;11.18;8.82;;;;;;;;;;13163030;22;20869;-79
2023/06/21 11:30:03;;;;;;;11.15;9.00;;;;;;;;;;13160181;22;20434;-79
2023/06/21 11:35:09;;;;;;;9.05;8.00;;;;;;;;;;13162729;22;20426;-79
2023/06/21 11:40:26;;;;;;;10.57;9.30;;;;;;;;;;13161849;22;20507;-79
2023/06/21 11:45:35;;;;;;;11.27;9.07;;;;;;;;;;13159437;22;20956;-79
2023/06/21 11:50:42;;;;;;;11.33;8.77;;;;;;;;;;13161581;22;20370;-80
2023/06/21 11:55:46;;;;;;;10.75;7.95;;;;;;;;;;13163027;22;20671;-80
2023/06/21 12:00:49;;;;;;;11.73;8.60;;;;;;;;;;13158980;22;20430;-80
2023/06/21 12:05:53;;;;;;;11.50;8.75;;;;;;;;;;13166837;22;20403;-80
2023/06/21 12:11:00;;;;;;;10.30;8.90;;;;;;;;;;13166152;22;20419;-80
2023/06/21 12:16:04;;;;;;;10.43;8.30;;;;;;;;;;13167243;22;20736;-80
2023/06/21 12:21:07;;;;;;;10.32;9.25;;;;;;;;;;13169512;22;20357;-80
2023/06/21 12:26:15;;;;;;;9.77;8.48;;;;;;;;;;13170907;22;20377;-80
2023/06/21 12:31:18;;;;;;;10.95;7.72;;;;;;;;;;13170853;22;20354;-80
2023/06/21 12:36:21;;;;;;;11.87;7.80;;;;;;;;;;13170134;22;20909;-80
2023/06/21 12:41:26;;;;;;;11.50;8.13;;;;;;;;;;13170847;22;20391;-80
2023/06/21 12:46:36;;;;;;;11.82;7.68;;;;;;;;;;13170952;22;20454;-80
2023/06/21 12:51:38;;;;;;;12.65;8.38;;;;;;;;;;13169299;22;20415;-80
2023/06/21 12:56:47;;;;;;;11.65;7.60;;;;;;;;;;13192658;22;20751;-80
2023/06/21 13:01:50;;;;;;;10.67;8.10;;;;;;;;;;13170724;22;20362;-80
2023/06/21 13:06:52;;;;;;;10.10;8.50;;;;;;;;;;13169320;22;20377;-80
2023/06/21 13:11:56;;;;;;;10.23;8.10;;;;;;;;;;13170850;22;20894;-80
2023/06/21 13:16:58;;;;;;;11.18;8.85;;;;;;;;;;13171127;22;20357;-79
2023/06/21 13:22:00;;;;;;;10.68;8.43;;;;;;;;;;13167107;22;20361;-80
2023/06/21 13:27:05;;;;;;;11.43;8.30;;;;;;;;;;13167799;22;20381;-79
2023/06/21 13:32:07;;;;;;;11.52;8.93;;;;;;;;;;13166867;22;20357;-78
2023/06/21 13:37:10;;;;;;;15.35;9.07;;;;;;;;;;13165216;22;20353;-79
2023/06/21 13:42:13;;;;;;;11.65;8.40;;;;;;;;;;13162418;22;20407;-79
2023/06/21 13:47:16;;;;;;;12.73;8.07;;;;;;;;;;13164648;22;20377;-79
2023/06/21 13:52:19;;;;;;;8.55;7.60;;;;;;;;;;13166779;22;20438;-79
2023/06/21 13:57:24;;;;;;;12.18;8.18;;;;;;;;;;13165823;22;20361;-79
2023/06/21 14:02:26;;;;;;;10.47;6.97;;;;;;;;;;13166128;22;20941;-79
2023/06/21 14:07:28;;;;;;;9.25;6.95;;;;;;;;;;13165462;22;20407;-79
2023/06/21 14:12:32;;;;;;;14.90;7.93;;;;;;;;;;13169905;22;20350;-79
2023/06/21 14:17:35;;;;;;;10.55;6.90;;;;;;;;;;13168990;22;20354;-79
2023/06/21 14:22:37;;;;;;;10.10;6.63;;;;;;;;;;13163194;22;20358;-84
2023/06/21 14:27:41;;;;;;;8.88;7.25;;;;;;;;;;13168053;22;20914;-80
2023/06/21 14:32:43;;;;;;;8.85;6.85;;;;;;;;;;13161174;22;20675;-80
2023/06/21 14:37:47;;;;;;;10.20;6.83;;;;;;;;;;13161070;22;20370;-79
2023/06/21 14:42:50;;;;;;;10.60;6.23;;;;;;;;;;13162882;22;20370;-80
2023/06/21 14:47:54;;;;;;;9.37;6.43;;;;;;;;;;13163740;22;20381;-80
2023/06/21 14:52:56;;;;;;;11.55;6.35;;;;;;;;;;13161423;22;20365;-79
2023/06/21 14:58:00;;;;;;;9.38;5.95;;;;;;;;;;13162053;22;20921;-80
2023/06/21 15:03:02;;;;;;;11.63;6.60;;;;;;;;;;13161694;22;20418;-79
2023/06/21 15:08:04;;;;;;;11.63;7.30;;;;;;;;;;13163168;22;20430;-79
2023/06/21 15:13:08;;;;;;;11.73;6.82;;;;;;;;;;13164157;22;20373;-79
2023/06/21 15:18:11;;;;;;;8.75;6.95;;;;;;;;;;13164005;22;20403;-79
2023/06/21 15:23:14;;;;;;;9.35;6.10;;;;;;;;;;13162963;22;20431;-80
2023/06/21 15:28:17;;;;;;;9.15;6.20;;;;;;;;;;13163918;22;20407;-79
2023/06/21 15:33:20;;;;;;;11.40;6.50;;;;;;;;;;13164078;22;20407;-80
2023/06/21 15:38:22;;;;;;;8.98;5.55;;;;;;;;;;13162155;22;20366;-79
2023/06/21 15:43:26;;;;;;;11.73;5.83;;;;;;;;;;13162815;22;20370;-80
2023/06/21 15:48:28;;;;;;;11.67;5.77;;;;;;;;;;13161108;22;20369;-79
2023/06/21 15:53:30;;;;;;;10.38;5.68;;;;;;;;;;13162757;22;20418;-80
2023/06/21 15:58:34;;;;;;;9.30;5.60;;;;;;;;;;13162581;22;20361;-80
2023/06/21 16:03:36;;;;;;;10.83;5.70;;;;;;;;;;13159321;22;20423;-79
2023/06/21 16:08:39;;;;;;;13.70;5.97;;;;;;;;;;13156469;22;20430;-80
2023/06/21 16:13:44;;;;;;;9.70;7.03;;;;;;;;;;13158582;22;20422;-79
2023/06/21 16:18:48;;;;;;;8.98;7.55;;;;;;;;;;13161064;22;20403;-79
2023/06/21 16:23:51;;;;;;;10.00;8.23;;;;;;;;;;13158870;22;20402;-79
2023/06/21 16:28:54;;;;;;;11.05;8.35;;;;;;;;;;13155321;22;20841;-79
2023/06/21 16:33:58;;;;;;;12.65;8.15;;;;;;;;;;13152061;22;20713;-78
2023/06/21 16:39:00;;;;;;;9.30;8.18;;;;;;;;;;13156268;22;20849;-80
2023/06/21 16:44:04;;;;;;;12.98;8.43;;;;;;;;;;13153325;22;20406;-80
2023/06/21 16:49:06;;;;;;;11.23;8.00;;;;;;;;;;13154216;22;20361;-80
2023/06/21 16:54:08;;;;;;;9.10;7.90;;;;;;;;;;13154312;22;20361;-80
2023/06/21 16:59:12;;;;;;;10.77;7.97;;;;;;;;;;13154409;22;20748;-80
2023/06/21 17:04:14;;;;;;;10.88;8.18;;;;;;;;;;13154860;22;20833;-80
2023/06/21 17:09:17;;;;;;;11.70;7.70;;;;;;;;;;13156314;22;20365;-79
2023/06/21 17:14:21;;;;;;;10.10;7.23;;;;;;;;;;13155602;22;21121;-80
2023/06/21 17:19:23;;;;;;;8.65;7.57;;;;;;;;;;13156582;22;20373;-85
2023/06/21 17:24:26;;;;;;;10.20;7.23;;;;;;;;;;13155595;22;20403;-80
2023/06/21 17:29:29;;;;;;;9.50;6.90;;;;;;;;;;13156907;22;20489;-79
2023/06/21 17:34:32;;;;;;;9.43;7.78;;;;;;;;;;13153783;22;20392;-79
2023/06/21 17:39:34;;;;;;;9.95;7.90;;;;;;;;;;13158644;22;20880;-80
2023/06/21 17:44:37;;;;;;;11.65;7.90;;;;;;;;;;13159694;22;20373;-79
2023/06/21 17:49:40;;;;;;;11.00;8.20;;;;;;;;;;13162767;22;20447;-80
2023/06/21 17:54:42;;;;;;;8.65;7.40;;;;;;;;;;13160277;22;20837;-79
2023/06/21 17:59:46;;;;;;;8.97;7.70;;;;;;;;;;13161573;22;20430;-80
2023/06/21 18:04:48;;;;;;;11.20;7.78;;;;;;;;;;13161016;22;20493;-80
2023/06/21 18:09:51;;;;;;;9.80;7.40;;;;;;;;;;13157741;22;20399;-80
2023/06/21 18:14:55;;;;;;;8.85;6.70;;;;;;;;;;13157673;22;20493;-79
2023/06/21 18:19:58;;;;;;;7.90;6.43;;;;;;;;;;13154903;22;20373;-80
2023/06/21 18:25:06;;;;;;;7.57;6.30;;;;;;;;;;13157011;22;20442;-79
2023/06/21 18:30:10;;;;;;;8.97;6.60;;;;;;;;;;13158815;22;20426;-81
2023/06/21 18:35:16;;;;;;;7.72;6.93;;;;;;;;;;13160498;22;20403;-83
2023/06/21 18:40:18;;;;;;;8.50;6.10;;;;;;;;;;13160351;22;20373;-81
2023/06/21 18:45:27;;;;;;;8.83;6.30;;;;;;;;;;13159053;22;20406;-80
2023/06/21 18:50:29;;;;;;;7.87;6.30;;;;;;;;;;13155084;22;20361;-80
2023/06/21 18:55:31;;;;;;;8.85;6.13;;;;;;;;;;13156999;22;20461;-81
2023/06/21 19:00:35;;;;;;;7.63;6.43;;;;;;;;;;13158673;22;20430;-80
2023/06/21 19:05:37;;;;;;;9.33;6.43;;;;;;;;;;13157840;22;20382;-81
2023/06/21 19:10:39;;;;;;;9.47;6.40;;;;;;;;;;13159685;22;20369;-81
2023/06/21 19:15:44;;;;;;;11.23;6.77;;;;;;;;;;13158900;22;20365;-81
2023/06/21 19:20:46;;;;;;;8.68;6.90;;;;;;;;;;13159081;22;20499;-81
2023/06/21 19:25:48;;;;;;;7.95;6.80;;;;;;;;;;13158520;22;20385;-81
2023/06/21 19:30:52;;;;;;;10.13;6.70;;;;;;;;;;13157299;22;20869;-81
2023/06/21 19:35:55;;;;;;;7.68;6.85;;;;;;;;;;13157751;22;20377;-81
2023/06/21 19:40:57;;;;;;;8.90;7.07;;;;;;;;;;13160211;22;20373;-81
2023/06/21 19:46:01;;;;;;;8.77;6.70;;;;;;;;;;13159625;22;20825;-81
2023/06/21 19:51:03;;;;;;;9.80;7.30;;;;;;;;;;13159211;22;20501;-81
2023/06/21 19:56:05;;;;;;;9.90;7.88;;;;;;;;;;13159493;22;20354;-81
2023/06/21 20:01:09;;;;;;;9.88;7.82;;;;;;;;;;13155984;22;20785;-81
2023/06/21 20:06:11;;;;;;;10.00;8.00;;;;;;;;;;13156926;22;20385;-80
2023/06/21 20:11:13;;;;;;;10.15;8.75;;;;;;;;;;13157423;22;20921;-81
2023/06/21 20:16:17;;;;;;;12.50;9.00;;;;;;;;;;13158061;22;20759;-80
2023/06/21 20:21:19;;;;;;;11.57;9.10;;;;;;;;;;13156367;22;20369;-81
2023/06/21 20:26:22;;;;;;;10.77;9.37;;;;;;;;;;13158210;22;20450;-80
2023/06/21 20:31:25;;;;;;;10.13;9.05;;;;;;;;;;13157895;22;20479;-80
2023/06/21 20:36:29;;;;;;;11.60;10.30;;;;;;;;;;13156371;22;20442;-80
2023/06/21 20:41:32;;;;;;;10.70;9.45;;;;;;;;;;13157046;22;20422;-78
2023/06/21 20:46:37;;;;;;;11.93;9.43;;;;;;;;;;13158744;22;20438;-79
2023/06/21 20:51:40;;;;;;;12.13;9.32;;;;;;;;;;13154768;22;20422;-81
2023/06/21 20:56:43;;;;;;;14.02;9.93;;;;;;;;;;13157617;22;20489;-81
2023/06/21 21:01:50;;;;;;;11.60;9.43;;;;;;;;;;13161488;22;20449;-81
2023/06/21 21:06:55;;;;;;;12.52;9.73;;;;;;;;;;13158531;22;20442;-81
2023/06/21 21:11:57;;;;;;;11.73;9.05;;;;;;;;;;13161739;22;20426;-81
2023/06/21 21:17:03;;;;;;;10.25;9.15;;;;;;;;;;13165297;22;20368;-81
2023/06/21 21:22:06;;;;;;;13.23;9.97;;;;;;;;;;13164600;22;20898;-81
2023/06/21 21:27:08;;;;;;;11.55;9.25;;;;;;;;;;13123610;22;20389;-83
2023/06/21 21:32:12;;;;;;;11.85;8.75;;;;;;;;;;13170045;22;20442;-80
2023/06/21 21:37:14;;;;;;;12.88;9.52;;;;;;;;;;13169091;22;20442;-83
2023/06/21 21:42:17;;;;;;;11.65;9.20;;;;;;;;;;13166501;22;20357;-82
2023/06/21 21:47:20;;;;;;;10.57;9.18;;;;;;;;;;13172679;22;20373;-83
2023/06/21 21:52:23;;;;;;;12.57;9.70;;;;;;;;;;13173006;22;20697;-82
2023/06/21 21:57:25;;;;;;;10.83;9.20;;;;;;;;;;13174381;22;20736;-83
2023/06/21 22:02:29;;;;;;;12.63;9.40;;;;;;;;;;13174601;22;20402;-82
2023/06/21 22:07:31;;;;;;;11.60;8.93;;;;;;;;;;13173930;22;20378;-82
2023/06/21 22:12:33;;;;;;;13.73;9.07;;;;;;;;;;13196130;22;20357;-83
2023/06/21 22:17:37;;;;;;;13.07;9.40;;;;;;;;;;13173704;22;20434;-82
2023/06/21 22:22:43;;;;;;;13.53;9.90;;;;;;;;;;13173385;22;20821;-82
2023/06/21 22:27:45;;;;;;;14.53;10.57;;;;;;;;;;13174440;22;20426;-83
2023/06/21 22:32:49;;;;;;;11.57;9.70;;;;;;;;;;13174502;22;20391;-82
2023/06/21 22:37:52;;;;;;;12.93;9.77;;;;;;;;;;13171936;22;20668;-83
2023/06/21 22:42:55;;;;;;;12.70;9.18;;;;;;;;;;13168257;22;20357;-82
2023/06/21 22:47:58;;;;;;;12.83;9.43;;;;;;;;;;13173223;22;20378;-83
2023/06/21 22:53:01;;;;;;;11.63;9.27;;;;;;;;;;13170832;22;20357;-82
2023/06/21 22:58:04;;;;;;;12.77;10.00;;;;;;;;;;13170433;22;20365;-82
2023/06/21 23:03:08;;;;;;;13.27;11.47;;;;;;;;;;13172868;22;20358;-82
2023/06/21 23:08:11;;;;;;;17.15;12.68;;;;;;;;;;13172956;22;20430;-82
2023/06/21 23:13:13;;;;;;;16.30;13.20;;;;;;;;;;13174681;22;20357;-82
2023/06/21 23:18:17;;;;;;;17.63;12.63;;;;;;;;;;13173450;22;20357;-82
2023/06/21 23:23:19;;;;;;;13.77;11.60;;;;;;;;;;13173738;22;20357;-82
2023/06/21 23:28:22;;;;;;;14.43;10.63;;;;;;;;;;13168585;22;20925;-82
2023/06/21 23:33:33;;;;;;;13.37;10.97;;;;;;;;;;13169384;22;20422;-82
2023/06/21 23:38:43;;;;;;;13.27;10.02;;;;;;;;;;13168165;22;20411;-83
2023/06/21 23:43:46;;;;;;;11.93;9.65;;;;;;;;;;13171400;22;20431;-82
2023/06/21 23:48:49;;;;;;;11.90;9.85;;;;;;;;;;13173381;22;20435;-82
2023/06/21 23:53:53;;;;;;;10.23;8.77;;;;;;;;;;13169817;22;20463;-82
2023/06/21 23:58:55;;;;;;;12.53;9.80;;;;;;;;;;13171261;22;20354;-82
